createdAt,value
2022-10-16T00:01:07.322Z,22.57
2022-10-16T00:03:35.793Z,21.43
2022-10-16T00:06:05.117Z,22.93
2022-10-16T00:08:33.497Z,22.33
2022-10-16T00:11:04.747Z,21.87
2022-10-16T00:13:34.058Z,22.00
2022-10-16T00:16:02.677Z,24.20
2022-10-16T00:18:31.729Z,20.47
2022-10-16T00:21:05.032Z,21.10
2022-10-16T00:23:33.741Z,20.70
2022-10-16T00:26:05.401Z,21.23
2022-10-16T00:28:34.155Z,21.47
2022-10-16T00:31:05.237Z,19.03
2022-10-16T00:33:33.407Z,22.43
2022-10-16T00:36:01.862Z,25.43
2022-10-16T00:38:29.924Z,26.20
2022-10-16T00:40:58.728Z,21.73
2022-10-16T00:43:40.901Z,24.03
2022-10-16T00:46:15.938Z,20.00
2022-10-16T00:48:48.908Z,20.73
2022-10-16T00:51:17.235Z,17.83
2022-10-16T00:53:45.686Z,19.63
2022-10-16T00:56:13.860Z,20.33
2022-10-16T00:58:43.487Z,17.77
2022-10-16T01:01:11.691Z,18.83
2022-10-16T01:03:40.283Z,16.97
2022-10-16T01:09:09.724Z,18.23
2022-10-16T01:11:46.286Z,15.37
2022-10-16T01:14:24.461Z,22.17
2022-10-16T01:16:58.189Z,16.67
2022-10-16T01:19:49.858Z,19.27
2022-10-16T01:22:18.864Z,14.23
2022-10-16T01:24:50.482Z,21.33
2022-10-16T01:27:24.375Z,16.93
2022-10-16T01:29:56.162Z,16.63
2022-10-16T01:32:32.836Z,17.27
2022-10-16T01:35:04.885Z,16.87
2022-10-16T01:37:38.873Z,13.57
2022-10-16T01:40:11.584Z,20.50
2022-10-16T01:42:44.096Z,21.97
2022-10-16T01:45:15.565Z,17.83
2022-10-16T01:47:45.604Z,14.90
2022-10-16T01:50:15.762Z,17.53
2022-10-16T01:52:47.391Z,15.00
2022-10-16T01:55:19.624Z,17.37
2022-10-16T01:57:51.693Z,17.37
2022-10-16T02:00:22.392Z,20.67
2022-10-16T02:02:54.542Z,18.97
2022-10-16T02:05:27.859Z,23.57
2022-10-16T02:07:57.712Z,22.00
2022-10-16T02:10:31.918Z,16.97
2022-10-16T02:13:05.686Z,17.30
2022-10-16T02:15:33.908Z,16.00
2022-10-16T02:18:02.251Z,17.13
2022-10-16T02:20:34.041Z,20.03
2022-10-16T02:23:03.929Z,19.67
2022-10-16T02:25:35.857Z,19.37
2022-10-16T02:28:11.319Z,21.07
2022-10-16T02:30:44.554Z,19.10
2022-10-16T02:33:15.159Z,20.90
2022-10-16T02:35:45.052Z,21.80
2022-10-16T02:38:14.719Z,18.10
2022-10-16T02:40:43.564Z,16.93
2022-10-16T02:43:13.548Z,17.87
2022-10-16T02:45:41.752Z,16.93
2022-10-16T02:48:09.993Z,20.70
2022-10-16T02:50:38.102Z,19.77
2022-10-16T02:53:06.212Z,16.20
2022-10-16T02:55:34.286Z,18.27
2022-10-16T02:58:02.316Z,17.10
2022-10-16T03:00:31.772Z,19.70
2022-10-16T03:02:59.809Z,22.20
2022-10-16T03:05:27.846Z,20.93
2022-10-16T03:07:56.581Z,23.87
2022-10-16T03:10:24.692Z,19.07
2022-10-16T03:12:52.734Z,22.77
2022-10-16T03:15:20.808Z,23.67
2022-10-16T03:17:50.300Z,23.83
2022-10-16T03:20:18.420Z,23.20
2022-10-16T03:22:46.563Z,22.77
2022-10-16T03:25:14.776Z,21.87
2022-10-16T03:27:42.838Z,23.03
2022-10-16T03:30:12.043Z,19.67
2022-10-16T03:32:40.113Z,21.00
2022-10-16T03:35:10.357Z,23.10
2022-10-16T03:37:38.508Z,26.97
2022-10-16T03:40:07.741Z,20.17
2022-10-16T03:42:35.806Z,23.03
2022-10-16T03:45:03.903Z,23.87
2022-10-16T03:47:33.981Z,23.87
2022-10-16T03:50:02.322Z,20.87
2022-10-16T03:52:33.074Z,21.40
2022-10-16T03:55:01.249Z,22.53
2022-10-16T03:57:29.744Z,22.63
2022-10-16T03:59:58.085Z,23.23
2022-10-16T04:02:26.168Z,26.43
2022-10-16T04:04:54.247Z,24.53
2022-10-16T04:07:22.464Z,23.20
2022-10-16T04:09:53.077Z,24.23
2022-10-16T04:12:21.153Z,24.47
2022-10-16T04:14:49.215Z,21.73
2022-10-16T04:17:18.178Z,26.87
2022-10-16T04:19:46.391Z,26.60
2022-10-16T04:22:14.514Z,22.60
2022-10-16T04:24:42.675Z,25.17
2022-10-16T04:27:12.168Z,25.80
2022-10-16T04:29:40.228Z,24.63
2022-10-16T04:32:10.519Z,25.80
2022-10-16T04:34:40.060Z,25.77
2022-10-16T04:37:08.137Z,24.07
2022-10-16T04:39:36.294Z,26.10
2022-10-16T04:42:04.709Z,27.10
2022-10-16T04:44:34.210Z,25.57
2022-10-16T04:47:02.369Z,27.27
2022-10-16T04:49:30.451Z,24.90
2022-10-16T04:51:58.503Z,27.03
2022-10-16T04:54:26.562Z,26.17
2022-10-16T04:56:54.864Z,23.80
2022-10-16T04:59:23.709Z,29.23
2022-10-16T05:01:53.161Z,28.00
2022-10-16T05:04:21.214Z,27.83
2022-10-16T05:06:50.271Z,33.67
2022-10-16T05:09:18.619Z,29.33
2022-10-16T05:11:46.677Z,29.90
2022-10-16T05:14:14.776Z,30.30
2022-10-16T05:16:42.920Z,24.37
2022-10-16T05:19:28.567Z,26.50
2022-10-16T05:21:57.290Z,27.87
2022-10-16T05:24:25.436Z,35.70
2022-10-16T05:26:53.709Z,28.97
2022-10-16T05:29:22.071Z,27.60
2022-10-16T05:31:53.558Z,25.97
2022-10-16T05:34:23.560Z,25.23
2022-10-16T05:36:51.815Z,26.40
2022-10-16T05:39:19.996Z,23.77
2022-10-16T05:41:48.067Z,24.37
2022-10-16T05:44:16.197Z,24.93
2022-10-16T05:46:44.303Z,22.87
2022-10-16T05:49:12.343Z,26.90
2022-10-16T05:51:42.300Z,22.30
2022-10-16T05:54:10.635Z,30.33
2022-10-16T05:56:39.064Z,23.80
2022-10-16T05:59:07.563Z,26.97
2022-10-16T06:01:36.278Z,26.37
2022-10-16T06:04:05.300Z,29.77
2022-10-16T06:06:33.458Z,25.07
2022-10-16T06:09:02.945Z,22.83
2022-10-16T06:11:33.520Z,27.80
2022-10-16T06:14:07.514Z,28.13
2022-10-16T06:16:36.650Z,24.37
2022-10-16T06:19:07.290Z,26.27
2022-10-16T06:21:35.664Z,25.70
2022-10-16T06:24:05.446Z,29.57
2022-10-16T06:26:33.799Z,26.83
2022-10-16T06:29:02.246Z,21.40
2022-10-16T06:31:32.078Z,22.70
2022-10-16T06:34:00.808Z,26.07
2022-10-16T06:36:29.160Z,26.70
2022-10-16T06:38:57.497Z,22.70
2022-10-16T06:41:26.920Z,21.03
2022-10-16T06:43:55.025Z,24.80
2022-10-16T06:46:25.553Z,22.73
2022-10-16T06:48:54.606Z,24.43
2022-10-16T06:51:24.733Z,22.47
2022-10-16T06:54:03.390Z,19.20
2022-10-16T06:56:35.113Z,20.23
2022-10-16T06:59:04.185Z,21.53
2022-10-16T07:01:32.987Z,24.40
2022-10-16T07:04:02.087Z,19.10
2022-10-16T07:06:34.626Z,22.67
2022-10-16T07:09:06.218Z,21.10
2022-10-16T07:11:36.326Z,19.53
2022-10-16T07:14:05.234Z,18.50
2022-10-16T07:16:34.741Z,20.17
2022-10-16T07:19:03.949Z,18.87
2022-10-16T07:21:36.449Z,17.77
2022-10-16T07:24:06.186Z,20.47
2022-10-16T07:26:40.019Z,19.03
2022-10-16T07:29:09.560Z,19.17
2022-10-16T07:31:39.519Z,18.40
2022-10-16T07:34:07.823Z,17.03
2022-10-16T07:36:36.474Z,18.30
2022-10-16T07:39:05.161Z,18.70
2022-10-16T07:41:33.802Z,18.00
2022-10-16T07:44:03.223Z,24.37
2022-10-16T07:46:31.964Z,17.43
2022-10-16T07:49:00.045Z,18.27
2022-10-16T07:51:28.714Z,22.57
2022-10-16T07:53:56.879Z,21.23
2022-10-16T07:56:25.537Z,18.70
2022-10-16T07:58:54.243Z,21.80
2022-10-16T08:01:23.777Z,17.03
2022-10-16T08:03:53.384Z,16.70
2022-10-16T08:06:26.736Z,18.10
2022-10-16T08:08:56.568Z,18.07
2022-10-16T08:11:25.388Z,16.67
2022-10-16T08:13:53.566Z,18.93
2022-10-16T08:16:23.353Z,16.97
2022-10-16T08:18:52.433Z,15.83
2022-10-16T08:21:23.677Z,16.50
2022-10-16T08:23:55.062Z,20.47
2022-10-16T08:26:27.477Z,17.80
2022-10-16T08:28:55.813Z,18.90
2022-10-16T08:31:25.641Z,20.70
2022-10-16T08:33:53.894Z,16.87
2022-10-16T08:36:22.153Z,19.13
2022-10-16T08:38:51.748Z,17.20
2022-10-16T08:41:59.575Z,20.17
2022-10-16T08:44:43.977Z,21.30
2022-10-16T08:47:20.337Z,17.03
2022-10-16T08:49:58.402Z,16.00
2022-10-16T08:52:31.286Z,15.70
2022-10-16T08:54:59.567Z,14.03
2022-10-16T08:57:28.805Z,15.80
2022-10-16T09:00:02.649Z,19.03
2022-10-16T09:02:37.275Z,19.77
2022-10-16T09:05:20.450Z,15.63
2022-10-16T09:07:55.959Z,16.00
2022-10-16T09:10:34.526Z,15.77
2022-10-16T09:13:11.845Z,13.07
2022-10-16T09:15:47.735Z,12.60
2022-10-16T09:18:24.325Z,15.03
2022-10-16T09:21:01.627Z,14.20
2022-10-16T09:23:31.202Z,14.33
2022-10-16T09:26:01.238Z,13.73
2022-10-16T09:28:29.382Z,13.17
2022-10-16T09:30:57.492Z,14.80
2022-10-16T09:33:31.639Z,17.73
2022-10-16T09:36:00.491Z,15.40
2022-10-16T09:38:31.109Z,13.97
2022-10-16T09:41:04.214Z,11.20
2022-10-16T09:43:37.460Z,11.97
2022-10-16T09:46:07.190Z,12.63
2022-10-16T09:48:40.042Z,11.80
2022-10-16T09:51:19.708Z,13.33
2022-10-16T09:53:49.111Z,13.27
2022-10-16T09:56:25.696Z,14.13
2022-10-16T09:58:54.935Z,13.53
2022-10-16T10:01:26.193Z,14.37
2022-10-16T10:04:02.140Z,12.03
2022-10-16T10:06:32.610Z,14.37
2022-10-16T10:09:05.423Z,12.03
2022-10-16T10:11:46.122Z,12.53
2022-10-16T10:14:37.291Z,11.60
2022-10-16T10:17:13.762Z,13.43
2022-10-16T10:19:48.048Z,13.10
2022-10-16T10:22:21.503Z,11.33
2022-10-16T10:24:58.160Z,10.87
2022-10-16T10:27:32.307Z,13.93
2022-10-16T10:30:09.235Z,13.20
2022-10-16T10:32:44.411Z,16.17
2022-10-16T10:35:21.059Z,12.57
2022-10-16T10:38:07.729Z,16.07
2022-10-16T10:40:47.632Z,18.07
2022-10-16T10:43:30.283Z,10.67
2022-10-16T10:46:02.856Z,14.50
2022-10-16T10:48:50.997Z,11.10
2022-10-16T10:51:25.768Z,13.40
2022-10-16T10:54:04.822Z,14.37
2022-10-16T10:56:47.143Z,12.70
2022-10-16T10:59:38.544Z,11.73
2022-10-16T11:02:15.473Z,16.70
2022-10-16T11:05:24.520Z,16.40
2022-10-16T11:07:59.301Z,12.50
2022-10-16T11:10:32.584Z,13.17
2022-10-16T11:13:08.406Z,13.30
2022-10-16T11:15:41.483Z,12.13
2022-10-16T11:18:15.626Z,14.40
2022-10-16T11:20:49.080Z,14.77
2022-10-16T11:23:24.578Z,12.50
2022-10-16T11:25:57.301Z,11.17
2022-10-16T11:28:31.890Z,12.60
2022-10-16T11:31:05.735Z,14.87
2022-10-16T11:33:41.891Z,12.63
2022-10-16T11:36:16.207Z,13.27
2022-10-16T11:38:54.980Z,12.30
2022-10-16T11:41:29.637Z,15.10
2022-10-16T11:44:21.252Z,14.57
2022-10-16T11:47:24.463Z,11.67
2022-10-16T11:49:51.580Z,11.07
2022-10-16T11:52:27.119Z,14.63
2022-10-16T11:55:01.537Z,15.10
2022-10-16T11:57:33.403Z,11.57
2022-10-16T12:00:07.303Z,13.60
2022-10-16T12:02:55.185Z,11.47
2022-10-16T12:05:30.816Z,11.93
2022-10-16T12:08:08.472Z,12.13
2022-10-16T12:13:34.066Z,14.03
2022-10-16T12:16:22.711Z,12.87
2022-10-16T12:18:51.365Z,14.07
2022-10-16T12:21:31.896Z,12.60
2022-10-16T12:24:02.280Z,12.50
2022-10-16T12:26:35.060Z,11.47
2022-10-16T12:29:16.398Z,12.03
2022-10-16T12:31:57.495Z,11.02
2022-10-16T12:34:30.184Z,11.90
2022-10-16T12:37:09.583Z,11.53
2022-10-16T12:39:39.053Z,12.48
2022-10-16T12:42:24.021Z,13.77
2022-10-16T12:44:52.498Z,9.97
2022-10-16T12:47:23.675Z,12.03
2022-10-16T12:49:54.183Z,10.48
2022-10-16T12:52:37.039Z,12.97
2022-10-16T12:55:07.659Z,12.52
2022-10-16T12:57:48.591Z,11.93
2022-10-16T13:00:26.618Z,12.63
2022-10-16T13:03:21.455Z,12.97
2022-10-16T13:06:01.049Z,11.67
2022-10-16T13:08:42.945Z,11.17
2022-10-16T13:11:22.209Z,14.33
2022-10-16T13:14:07.863Z,11.13
2022-10-16T13:16:48.675Z,12.27
2022-10-16T13:19:23.834Z,11.93
2022-10-16T13:21:58.198Z,14.80
2022-10-16T13:24:50.761Z,14.00
2022-10-16T13:27:30.243Z,16.80
2022-10-16T13:30:12.712Z,14.37
2022-10-16T13:32:41.879Z,11.50
2022-10-16T13:35:22.876Z,11.63
2022-10-16T13:37:51.213Z,13.60
2022-10-16T13:40:24.711Z,11.90
2022-10-16T13:42:55.157Z,13.17
2022-10-16T13:45:27.140Z,13.10
2022-10-16T13:48:04.821Z,14.27
2022-10-16T13:50:33.052Z,11.90
2022-10-16T13:53:07.766Z,13.30
2022-10-16T13:55:35.994Z,14.90
2022-10-16T13:58:09.305Z,18.70
2022-10-16T14:03:17.140Z,16.40
2022-10-16T14:05:49.304Z,16.53
2022-10-16T14:08:17.634Z,14.70
2022-10-16T14:10:50.270Z,13.03
2022-10-16T14:13:21.490Z,17.20
2022-10-16T14:15:53.274Z,14.13
2022-10-16T14:18:24.756Z,14.00
2022-10-16T14:20:53.241Z,15.53
2022-10-16T14:23:24.794Z,13.93
2022-10-16T14:25:52.901Z,17.93
2022-10-16T14:28:22.903Z,14.97
2022-10-16T14:30:57.307Z,14.53
2022-10-16T14:33:27.607Z,14.30
2022-10-16T14:36:05.360Z,14.33
2022-10-16T14:38:34.475Z,12.53
2022-10-16T14:41:03.216Z,18.77
2022-10-16T14:43:36.120Z,17.13
2022-10-16T14:46:15.733Z,35.50
2022-10-16T14:48:44.877Z,19.33
2022-10-16T14:51:15.691Z,21.77
2022-10-16T14:53:43.789Z,17.13
2022-10-16T14:56:18.980Z,13.60
2022-10-16T14:58:47.078Z,16.40
2022-10-16T15:01:16.441Z,15.40
2022-10-16T15:03:44.941Z,17.60
2022-10-16T15:06:13.577Z,15.27
2022-10-16T15:08:41.959Z,13.47
2022-10-16T15:11:14.478Z,18.77
2022-10-16T15:13:42.456Z,18.50
2022-10-16T15:16:12.984Z,19.43
2022-10-16T15:18:42.328Z,19.70
2022-10-16T15:21:10.935Z,16.53
2022-10-16T15:23:39.702Z,15.73
2022-10-16T15:26:07.659Z,16.67
2022-10-16T15:28:36.807Z,17.00
2022-10-16T15:31:06.807Z,13.10
2022-10-16T15:33:38.915Z,18.00
2022-10-16T15:36:09.872Z,15.90
2022-10-16T15:38:37.878Z,19.50
2022-10-16T15:41:06.145Z,16.53
2022-10-16T15:43:34.288Z,15.00
2022-10-16T15:46:04.542Z,16.50
2022-10-16T15:48:33.069Z,17.27
2022-10-16T15:51:01.868Z,16.10
2022-10-16T15:53:31.312Z,16.43
2022-10-16T15:55:59.269Z,22.13
2022-10-16T15:58:27.193Z,20.80
2022-10-16T16:00:58.980Z,21.83
2022-10-16T16:03:27.259Z,21.13
2022-10-16T16:05:55.593Z,22.07
2022-10-16T16:08:24.299Z,23.90
2022-10-16T16:11:01.319Z,18.70
2022-10-16T16:13:29.786Z,22.70
2022-10-16T16:15:58.019Z,19.03
2022-10-16T16:18:26.335Z,20.27
2022-10-16T16:20:54.334Z,20.57
2022-10-16T16:23:23.131Z,19.27
2022-10-16T16:26:07.090Z,21.93
2022-10-16T16:28:35.471Z,20.87
2022-10-16T16:31:03.558Z,21.13
2022-10-16T16:33:31.877Z,19.60
2022-10-16T16:36:00.921Z,20.03
2022-10-16T16:38:29.929Z,21.27
2022-10-16T16:40:58.157Z,18.13
2022-10-16T16:43:28.623Z,19.33
2022-10-16T16:45:56.836Z,21.23
2022-10-16T16:48:25.133Z,20.00
2022-10-16T16:50:53.073Z,22.13
2022-10-16T16:53:21.130Z,18.17
2022-10-16T16:55:49.089Z,19.47
2022-10-16T16:58:17.009Z,20.47
2022-10-16T17:00:56.704Z,22.43
2022-10-16T17:03:25.259Z,25.87
2022-10-16T17:05:59.832Z,26.47
2022-10-16T17:08:28.135Z,29.40
2022-10-16T17:10:56.195Z,30.57
2022-10-16T17:13:24.298Z,32.70
2022-10-16T17:15:54.499Z,41.03
2022-10-16T17:18:23.746Z,43.50
2022-10-16T17:20:52.700Z,46.33
2022-10-16T17:23:21.561Z,43.67
2022-10-16T17:25:49.463Z,31.87
2022-10-16T17:28:17.410Z,29.83
2022-10-16T17:30:46.776Z,33.47
2022-10-16T17:33:16.206Z,30.00
2022-10-16T17:35:45.742Z,30.97
2022-10-16T17:38:16.699Z,36.10
2022-10-16T17:40:44.645Z,38.33
2022-10-16T17:43:12.587Z,40.77
2022-10-16T17:45:40.486Z,36.93
2022-10-16T17:48:08.407Z,28.07
2022-10-16T17:50:41.390Z,27.93
2022-10-16T17:53:09.348Z,27.20
2022-10-16T17:55:39.572Z,26.03
2022-10-16T17:58:07.527Z,26.10
2022-10-16T18:00:36.086Z,28.63
2022-10-16T18:03:04.151Z,35.60
2022-10-16T18:05:32.212Z,31.73
2022-10-16T18:08:01.492Z,30.57
2022-10-16T18:10:29.423Z,31.40
2022-10-16T18:12:57.791Z,27.70
2022-10-16T18:15:25.850Z,29.60
2022-10-16T18:17:54.929Z,29.20
2022-10-16T18:20:23.517Z,26.47
2022-10-16T18:22:52.192Z,30.33
2022-10-16T18:25:21.492Z,26.17
2022-10-16T18:27:49.532Z,28.80
2022-10-16T18:30:17.795Z,28.10
2022-10-16T18:32:45.854Z,26.07
2022-10-16T18:37:46.752Z,26.90
2022-10-16T18:40:14.708Z,27.70
2022-10-16T18:42:43.985Z,26.37
2022-10-16T18:45:12.058Z,32.17
2022-10-16T18:47:39.988Z,29.87
2022-10-16T18:50:11.152Z,30.00
2022-10-16T18:52:40.137Z,31.23
2022-10-16T18:55:10.733Z,27.53
2022-10-16T18:57:38.655Z,30.50
2022-10-16T19:00:09.578Z,28.27
2022-10-16T19:02:37.605Z,28.53
2022-10-16T19:05:06.533Z,34.50
2022-10-16T19:07:34.879Z,30.13
2022-10-16T19:10:02.815Z,33.10
2022-10-16T19:12:31.799Z,30.93
2022-10-16T19:14:59.845Z,36.23
2022-10-16T19:17:29.112Z,33.53
2022-10-16T19:19:57.219Z,39.50
2022-10-16T19:22:40.845Z,35.87
2022-10-16T19:25:10.021Z,32.27
2022-10-16T19:27:38.568Z,32.13
2022-10-16T19:30:07.887Z,33.03
2022-10-16T19:32:37.147Z,34.37
2022-10-16T19:35:05.382Z,34.40
2022-10-16T19:37:33.376Z,30.83
2022-10-16T19:40:01.315Z,33.80
2022-10-16T19:42:31.975Z,32.50
2022-10-16T19:44:59.921Z,31.97
2022-10-16T19:47:27.824Z,31.90
2022-10-16T19:49:57.138Z,28.33
2022-10-16T19:52:29.550Z,32.63
2022-10-16T19:54:58.363Z,27.83
2022-10-16T19:57:27.082Z,27.67
2022-10-16T19:59:55.458Z,30.23
2022-10-16T20:02:23.475Z,33.57
2022-10-16T20:04:51.557Z,29.70
2022-10-16T20:07:21.144Z,30.33
2022-10-16T20:09:49.120Z,34.83
2022-10-16T20:12:17.322Z,32.07
2022-10-16T20:14:45.456Z,30.80
2022-10-16T20:17:13.496Z,29.47
2022-10-16T20:19:41.900Z,34.33
2022-10-16T20:22:09.850Z,33.00
2022-10-16T20:24:39.356Z,34.23
2022-10-16T20:27:07.296Z,28.67
2022-10-16T20:29:35.316Z,31.73
2022-10-16T20:32:03.313Z,32.30
2022-10-16T20:34:31.825Z,31.27
2022-10-16T20:36:59.962Z,32.77
2022-10-16T20:39:27.918Z,28.97
2022-10-16T20:41:57.163Z,31.60
2022-10-16T20:44:25.109Z,34.27
2022-10-16T20:46:55.575Z,26.63
2022-10-16T20:49:39.375Z,31.63
2022-10-16T20:52:08.045Z,28.70
2022-10-16T20:54:36.005Z,33.20
2022-10-16T20:57:05.291Z,30.07
2022-10-16T20:59:33.232Z,30.37
2022-10-16T21:02:01.240Z,28.80
2022-10-16T21:04:29.454Z,28.10
2022-10-16T21:06:57.380Z,29.67
2022-10-16T21:09:25.587Z,28.73
2022-10-16T21:11:53.535Z,27.07
2022-10-16T21:14:23.051Z,29.80
2022-10-16T21:16:50.944Z,28.90
2022-10-16T21:19:19.095Z,27.97
2022-10-16T21:21:47.007Z,35.40
2022-10-16T21:24:16.690Z,27.80
2022-10-16T21:26:45.500Z,33.00
2022-10-16T21:29:13.635Z,27.50
2022-10-16T21:31:43.431Z,28.53
2022-10-16T21:34:11.725Z,30.97
2022-10-16T21:36:41.919Z,32.47
2022-10-16T21:39:11.638Z,27.13
2022-10-16T21:41:40.306Z,32.87
2022-10-16T21:44:08.691Z,25.50
2022-10-16T21:46:38.433Z,28.57
2022-10-16T21:49:09.055Z,29.43
2022-10-16T21:51:38.788Z,32.13
2022-10-16T21:54:08.340Z,27.90
2022-10-16T21:56:36.309Z,29.70
2022-10-16T21:59:04.635Z,30.63
2022-10-16T22:01:32.830Z,27.90
2022-10-16T22:04:01.126Z,29.03
2022-10-16T22:06:30.795Z,26.10
2022-10-16T22:09:00.651Z,29.07
2022-10-16T22:11:31.300Z,30.70
2022-10-16T22:13:59.271Z,30.23
2022-10-16T22:16:28.124Z,28.53
2022-10-16T22:18:58.020Z,30.63
2022-10-16T22:21:26.502Z,27.17
2022-10-16T22:23:55.813Z,32.60
2022-10-16T22:26:23.759Z,27.47
2022-10-16T22:28:51.688Z,28.63
2022-10-16T22:31:21.184Z,29.87
2022-10-16T22:33:49.325Z,30.60
2022-10-16T22:36:17.255Z,30.33
2022-10-16T22:38:45.207Z,29.30
2022-10-16T22:41:15.620Z,28.27
2022-10-16T22:43:45.211Z,32.93
2022-10-16T22:46:15.058Z,30.27
2022-10-16T22:48:43.744Z,28.33
2022-10-16T22:51:16.684Z,29.27
2022-10-16T22:53:46.287Z,30.47
2022-10-16T22:56:16.482Z,29.17
2022-10-16T22:58:44.919Z,31.73
2022-10-16T23:01:14.983Z,32.57
2022-10-16T23:03:42.979Z,31.90
2022-10-16T23:06:10.896Z,29.80
2022-10-16T23:08:38.912Z,35.17
2022-10-16T23:11:07.967Z,29.37
2022-10-16T23:13:39.039Z,31.90
2022-10-16T23:16:08.400Z,32.97
2022-10-16T23:18:36.530Z,31.83
2022-10-16T23:21:06.921Z,29.67
2022-10-16T23:23:35.906Z,34.57
2022-10-16T23:26:04.371Z,31.60
2022-10-16T23:28:33.106Z,27.87
2022-10-16T23:31:05.261Z,28.57
2022-10-16T23:33:33.617Z,33.07
2022-10-16T23:36:04.396Z,27.60
2022-10-16T23:38:32.456Z,30.87
2022-10-16T23:41:00.412Z,33.53
2022-10-16T23:43:28.843Z,34.80
2022-10-16T23:45:56.821Z,32.47
2022-10-16T23:48:26.166Z,32.67
2022-10-16T23:50:54.258Z,33.00
2022-10-16T23:53:22.268Z,32.13
2022-10-16T23:55:50.204Z,32.33
2022-10-16T23:58:18.242Z,32.33
